Time;durP1;ratioP1;P1;durP2;ratioP2;P2;SDS_P1;SDS_P2;PMS_P1;PMS_P2;Temp;Humidity;BMP_temperature;BMP_pressure;BME280_temperature;BME280_humidity;BME280_pressure;Samples;Min_cycle;Max_cycle;Signal;HPM_P1;HPM_P2
2022/01/26 00:00:56;;;;;;;23.65;13.73;;;2.90;99.90;;;;;;2585424;54;20031;31
2022/01/26 00:06:21;;;;;;;27.33;14.30;;;2.90;99.90;;;;;;2604117;46;21952;31
2022/01/26 00:08:54;;;;;;;24.45;14.27;;;2.90;99.90;;;;;;2585655;54;20045;31
2022/01/26 00:11:31;;;;;;;24.92;14.20;;;2.90;99.90;;;;;;2590184;46;21015;31
2022/01/26 00:16:39;;;;;;;27.33;13.82;;;3.00;99.90;;;;;;2585765;54;21101;31
2022/01/26 00:19:19;;;;;;;24.38;13.63;;;2.90;99.90;;;;;;2585895;54;20030;31
2022/01/26 00:21:58;;;;;;;24.50;14.15;;;2.90;99.90;;;;;;2585520;54;20028;31
2022/01/26 00:25:05;;;;;;;23.53;14.40;;;3.00;99.90;;;;;;2585512;54;21009;31
2022/01/26 00:27:50;;;;;;;25.40;13.95;;;3.00;99.90;;;;;;2585613;54;21000;31
2022/01/26 00:38:47;;;;;;;20.90;12.90;;;2.90;99.90;;;;;;2683644;39;22333;31
2022/01/26 00:41:31;;;;;;;23.33;13.30;;;2.90;99.90;;;;;;2585506;54;20022;31
2022/01/26 00:44:06;;;;;;;20.50;12.00;;;2.90;99.90;;;;;;2585558;54;21281;31
2022/01/26 00:46:47;;;;;;;22.60;12.90;;;2.80;99.90;;;;;;2585418;54;20042;31
2022/01/26 00:49:21;;;;;;;23.40;12.57;;;2.90;99.90;;;;;;2585373;54;20973;31
2022/01/26 00:51:55;;;;;;;22.70;12.40;;;2.90;99.90;;;;;;2585592;54;20239;31
2022/01/26 00:54:30;;;;;;;19.27;12.18;;;2.90;99.90;;;;;;2585651;54;21006;31
2022/01/26 00:57:02;;;;;;;22.27;11.82;;;2.90;99.90;;;;;;2585669;54;20938;31
2022/01/26 00:59:39;;;;;;;19.30;12.00;;;2.90;99.90;;;;;;2585562;54;20941;31
2022/01/26 01:04:42;;;;;;;24.10;13.60;;;2.90;99.90;;;;;;2585586;54;20026;31
2022/01/26 01:07:20;;;;;;;21.70;12.90;;;2.80;99.90;;;;;;2585486;54;21005;31
2022/01/26 01:09:56;;;;;;;21.67;13.32;;;2.90;99.90;;;;;;2585749;54;20258;31
2022/01/26 01:12:32;;;;;;;20.50;12.02;;;2.90;99.90;;;;;;2585478;54;20029;31
2022/01/26 01:15:09;;;;;;;21.23;12.00;;;2.90;99.90;;;;;;2585506;54;20858;31
2022/01/26 01:17:44;;;;;;;22.90;12.90;;;2.90;99.90;;;;;;2585440;54;20107;31
2022/01/26 01:20:35;;;;;;;21.45;12.45;;;2.90;99.90;;;;;;2585492;54;20811;31
2022/01/26 01:23:34;;;;;;;20.43;12.17;;;2.90;99.90;;;;;;2585456;54;20056;31
2022/01/26 01:29:14;;;;;;;19.90;12.40;;;2.90;99.90;;;;;;2585319;54;20035;31
2022/01/26 01:31:51;;;;;;;22.33;13.88;;;2.80;99.90;;;;;;2585607;54;20930;31
2022/01/26 01:34:25;;;;;;;23.17;13.43;;;2.80;99.90;;;;;;2603946;46;20942;31
2022/01/26 01:39:29;;;;;;;22.15;12.68;;;2.90;99.90;;;;;;2585102;54;20135;31
2022/01/26 01:44:34;;;;;;;22.42;13.40;;;2.80;99.90;;;;;;2683088;39;21883;31
2022/01/26 01:47:07;;;;;;;22.30;13.00;;;2.80;99.90;;;;;;2585266;54;20109;31
2022/01/26 01:49:40;;;;;;;25.05;13.70;;;2.80;99.90;;;;;;2585359;54;20054;31
2022/01/26 01:52:15;;;;;;;24.60;14.50;;;2.80;99.90;;;;;;2603817;46;20909;31
2022/01/26 01:54:53;;;;;;;23.70;14.20;;;2.80;99.90;;;;;;2585479;54;20046;31
2022/01/26 01:57:26;;;;;;;24.23;13.00;;;2.90;99.90;;;;;;2585565;54;20059;31
2022/01/26 01:59:59;;;;;;;25.90;14.73;;;2.80;99.90;;;;;;2603725;46;20924;31
2022/01/26 02:02:38;;;;;;;28.80;15.80;;;2.80;99.90;;;;;;2585535;54;21713;31
2022/01/26 02:05:13;;;;;;;28.97;15.47;;;2.80;99.90;;;;;;2682792;39;21948;31
2022/01/26 02:07:45;;;;;;;29.98;16.15;;;2.80;99.90;;;;;;2584430;54;20241;31
2022/01/26 02:10:20;;;;;;;27.40;15.45;;;2.80;99.90;;;;;;2585207;54;20869;31
2022/01/26 02:12:58;;;;;;;26.25;14.75;;;2.80;99.90;;;;;;2584998;54;20167;31
2022/01/26 02:15:36;;;;;;;22.95;13.25;;;2.80;99.90;;;;;;2683591;39;22372;31
2022/01/26 02:18:32;;;;;;;25.47;14.77;;;2.80;99.90;;;;;;2585360;54;20922;31
2022/01/26 02:51:45;;;;;;;31.60;16.10;;;2.80;99.90;;;;;;2584940;54;20991;31
2022/01/26 02:57:32;;;;;;;29.63;16.13;;;2.70;99.90;;;;;;2585000;54;20978;31
2022/01/26 03:00:23;;;;;;;25.65;13.38;;;2.70;99.90;;;;;;2683097;39;21377;31
2022/01/26 03:03:13;;;;;;;28.63;15.20;;;2.70;99.90;;;;;;2585113;54;20954;31
2022/01/26 03:05:58;;;;;;;29.42;15.18;;;2.80;99.90;;;;;;2604144;46;20888;31
2022/01/26 03:08:36;;;;;;;28.70;14.93;;;2.70;99.90;;;;;;2585710;54;21187;31
2022/01/26 03:11:25;;;;;;;26.63;14.25;;;2.80;99.90;;;;;;2585775;54;20033;31
2022/01/26 03:14:19;;;;;;;23.50;13.50;;;2.70;99.90;;;;;;2585741;54;20026;31
2022/01/26 03:17:09;;;;;;;26.37;14.70;;;2.70;99.90;;;;;;2585522;54;20061;31
2022/01/26 03:19:50;;;;;;;29.13;14.35;;;2.70;99.90;;;;;;2586092;54;21249;31
2022/01/26 03:28:26;;;;;;;25.70;14.50;;;2.70;99.90;;;;;;2585945;54;20995;31
2022/01/26 03:34:09;;;;;;;29.05;13.77;;;2.70;99.90;;;;;;2585519;54;20824;31
2022/01/26 03:36:52;;;;;;;24.45;13.85;;;2.70;99.90;;;;;;2585718;54;20160;31
2022/01/26 03:39:32;;;;;;;24.83;13.15;;;2.70;99.90;;;;;;2585132;54;20248;31
2022/01/26 03:48:03;;;;;;;28.20;14.40;;;2.70;99.90;;;;;;2585501;54;20855;31
2022/01/26 03:50:41;;;;;;;24.17;13.15;;;2.70;99.90;;;;;;2585645;54;21109;31
2022/01/26 03:53:17;;;;;;;25.80;12.90;;;2.70;99.90;;;;;;2584913;54;19943;31
2022/01/26 03:55:53;;;;;;;25.65;12.65;;;2.70;99.90;;;;;;2682633;39;21164;31
2022/01/26 03:58:31;;;;;;;;;;;2.60;99.90;;;;;;2584847;54;20022;31
2022/01/26 04:01:10;;;;;;;24.80;11.83;;;2.70;99.90;;;;;;2604298;46;20898;31
2022/01/26 04:09:23;;;;;;;24.70;13.65;;;2.60;99.90;;;;;;2603783;46;20053;31
2022/01/26 04:12:02;;;;;;;24.83;11.63;;;2.60;99.90;;;;;;2585213;54;20959;31
2022/01/26 04:14:50;;;;;;;23.05;12.05;;;2.60;99.90;;;;;;2603389;46;20086;31
2022/01/26 04:17:23;;;;;;;23.83;11.53;;;2.60;99.90;;;;;;2585530;54;20909;31
2022/01/26 04:20:01;;;;;;;22.08;11.27;;;2.60;99.90;;;;;;2604180;46;21361;31
2022/01/26 04:22:51;;;;;;;24.00;12.20;;;2.60;99.90;;;;;;2603892;46;21038;31
2022/01/26 04:25:44;;;;;;;24.60;12.57;;;2.60;99.90;;;;;;2585312;54;20768;31
2022/01/26 04:28:30;;;;;;;22.35;11.30;;;2.60;99.90;;;;;;2603612;46;20033;31
2022/01/26 04:31:07;;;;;;;23.93;12.10;;;2.60;99.90;;;;;;2585860;54;20945;31
2022/01/26 04:33:49;;;;;;;27.00;13.80;;;2.60;99.90;;;;;;2585249;54;20949;31
2022/01/26 04:36:40;;;;;;;22.23;12.17;;;2.60;99.90;;;;;;2585386;54;20952;31
2022/01/26 04:39:21;;;;;;;23.80;12.40;;;2.60;99.90;;;;;;2585180;54;20250;31
2022/01/26 04:41:57;;;;;;;25.17;11.90;;;2.70;99.90;;;;;;2585185;54;20026;31
2022/01/26 04:44:36;;;;;;;;;;;2.60;99.90;;;;;;2585304;54;20969;31
2022/01/26 04:47:14;;;;;;;23.05;12.35;;;2.60;99.90;;;;;;2585658;54;20798;31
2022/01/26 04:49:52;;;;;;;24.70;12.15;;;2.60;99.90;;;;;;2585522;54;20029;31
2022/01/26 04:52:37;;;;;;;22.40;11.60;;;2.70;99.90;;;;;;2585394;54;20060;31
2022/01/26 04:58:09;;;;;;;24.93;12.03;;;2.60;99.90;;;;;;2585592;54;20993;31
2022/01/26 05:00:46;;;;;;;;;;;2.60;99.90;;;;;;2585715;54;22103;31
2022/01/26 05:03:23;;;;;;;19.55;10.60;;;2.60;99.90;;;;;;2585043;54;20876;31
2022/01/26 05:08:42;;;;;;;21.00;10.98;;;2.70;99.90;;;;;;2584934;54;20027;31
2022/01/26 05:11:34;;;;;;;22.85;11.10;;;2.60;99.90;;;;;;2584602;54;19934;31
2022/01/26 05:14:20;;;;;;;20.90;11.35;;;2.70;99.90;;;;;;2585596;54;19934;31
2022/01/26 05:16:55;;;;;;;18.83;10.80;;;2.60;99.90;;;;;;2585483;54;20022;31
2022/01/26 05:19:31;;;;;;;17.83;9.80;;;2.60;99.90;;;;;;2585351;54;20029;31
2022/01/26 05:25:04;;;;;;;19.40;10.30;;;2.60;99.90;;;;;;2584206;54;20953;31
2022/01/26 05:27:43;;;;;;;20.30;11.10;;;2.70;99.90;;;;;;2590040;46;21015;31
2022/01/26 05:30:19;;;;;;;22.05;11.57;;;2.70;99.90;;;;;;2585719;54;20908;31
2022/01/26 05:32:54;;;;;;;25.00;12.65;;;2.70;99.90;;;;;;2584964;54;20027;31
2022/01/26 05:35:30;;;;;;;22.20;11.30;;;2.60;99.90;;;;;;2585020;54;20920;31
2022/01/26 05:38:14;;;;;;;21.92;12.60;;;2.70;99.90;;;;;;2585152;54;20058;31
2022/01/26 05:41:19;;;;;;;20.70;11.00;;;2.60;99.90;;;;;;2585195;54;20027;31
2022/01/26 05:44:02;;;;;;;23.10;12.52;;;2.70;99.90;;;;;;2585376;54;20052;31
2022/01/26 05:46:43;;;;;;;22.25;11.90;;;2.70;99.90;;;;;;2585340;54;20085;31
2022/01/26 05:49:26;;;;;;;24.00;13.20;;;2.70;99.90;;;;;;2604027;46;20931;31
2022/01/26 05:52:10;;;;;;;23.42;11.48;;;2.70;99.90;;;;;;2603572;46;20022;31
2022/01/26 05:54:43;;;;;;;22.15;12.35;;;2.70;99.90;;;;;;2683281;39;22326;31
2022/01/26 05:57:25;;;;;;;21.92;11.88;;;2.70;99.90;;;;;;2585259;54;20054;31
2022/01/26 06:00:06;;;;;;;19.10;10.40;;;2.70;99.90;;;;;;2585259;54;21008;31
2022/01/26 06:02:47;;;;;;;;;;;2.70;99.90;;;;;;2585544;54;20946;31
2022/01/26 06:05:22;;;;;;;22.43;10.33;;;2.70;99.90;;;;;;2603531;46;20904;31
2022/01/26 06:08:04;;;;;;;20.17;9.80;;;2.70;99.90;;;;;;2585303;54;20241;31
2022/01/26 06:10:45;;;;;;;21.15;10.70;;;2.70;99.90;;;;;;2603809;46;20925;31
2022/01/26 06:13:27;;;;;;;22.60;11.13;;;2.80;99.90;;;;;;2585329;54;21041;31
2022/01/26 06:16:04;;;;;;;21.10;9.35;;;2.70;99.90;;;;;;2584514;54;19942;31
2022/01/26 06:18:38;;;;;;;18.10;9.70;;;2.70;99.90;;;;;;2585095;54;20923;31
2022/01/26 06:21:14;;;;;;;16.33;8.95;;;2.70;99.90;;;;;;2585247;54;20033;31
2022/01/26 06:23:50;;;;;;;21.67;10.77;;;2.70;99.90;;;;;;2584556;54;20083;31
2022/01/26 06:26:33;;;;;;;19.87;10.30;;;2.80;99.90;;;;;;2603298;46;20921;31
2022/01/26 06:34:40;;;;;;;25.57;12.43;;;2.70;99.90;;;;;;2585338;54;20893;31
2022/01/26 06:37:18;;;;;;;25.00;11.80;;;2.70;99.90;;;;;;2585081;54;20903;31
2022/01/26 06:39:54;;;;;;;27.90;11.90;;;2.70;99.90;;;;;;2603638;46;20791;31
2022/01/26 06:42:39;;;;;;;26.98;12.40;;;2.70;99.90;;;;;;2585130;54;20138;31
2022/01/26 06:45:24;;;;;;;29.03;12.47;;;2.70;99.90;;;;;;2603771;46;20901;31
2022/01/26 06:48:41;;;;;;;24.97;11.33;;;2.70;99.90;;;;;;2603550;46;21161;31
2022/01/26 07:43:04;;;;;;;41.97;16.57;;;2.70;99.90;;;;;;2584436;54;20022;31
2022/01/26 07:48:28;;;;;;;;;;;2.70;99.90;;;;;;2682549;39;21703;31
2022/01/26 07:51:11;;;;;;;42.83;16.52;;;2.70;99.90;;;;;;2585012;54;19938;31
2022/01/26 08:03:34;;;;;;;51.03;18.15;;;2.70;99.90;;;;;;2587070;46;20244;31
2022/01/26 08:28:20;;;;;;;45.95;16.90;;;2.70;99.90;;;;;;2584494;54;20764;31
2022/01/26 08:46:29;;;;;;;30.85;15.73;;;2.90;99.90;;;;;;2583566;54;20164;31
2022/01/26 09:30:18;;;;;;;37.03;16.38;;;3.10;99.90;;;;;;2584533;54;20037;31
2022/01/26 09:36:56;;;;;;;30.98;15.40;;;3.10;99.90;;;;;;2584209;54;20052;31
2022/01/26 09:43:11;;;;;;;30.27;14.75;;;3.10;99.90;;;;;;2584357;54;20034;31
2022/01/26 09:49:09;;;;;;;26.25;14.15;;;3.20;99.90;;;;;;2585606;54;21124;31
2022/01/26 10:07:50;;;;;;;22.75;11.95;;;3.40;99.90;;;;;;2588652;46;20842;31
2022/01/26 10:20:03;;;;;;;17.42;11.43;;;3.50;99.90;;;;;;2585261;54;20108;31
2022/01/26 10:22:52;;;;;;;18.60;11.77;;;3.60;99.90;;;;;;2585122;54;21010;31
2022/01/26 10:32:13;;;;;;;16.50;9.75;;;3.60;99.90;;;;;;2604117;46;21185;31
2022/01/26 10:35:08;;;;;;;17.40;10.97;;;3.90;99.90;;;;;;2584818;54;20104;31
2022/01/26 10:40:21;;;;;;;20.67;11.43;;;3.90;99.90;;;;;;2603675;46;20909;31
2022/01/26 10:43:06;;;;;;;17.70;11.55;;;3.80;99.90;;;;;;2585298;54;21012;31
2022/01/26 10:46:03;;;;;;;16.60;10.68;;;3.90;99.90;;;;;;2601719;46;20027;31
2022/01/26 10:54:24;;;;;;;14.25;9.25;;;3.80;99.90;;;;;;2603794;46;20077;31
2022/01/26 10:57:10;;;;;;;13.95;8.90;;;3.80;99.90;;;;;;2585206;54;20861;31
2022/01/26 10:59:52;;;;;;;14.75;9.55;;;3.90;99.90;;;;;;2585259;54;20913;31
2022/01/26 11:02:31;;;;;;;13.63;9.48;;;3.90;99.90;;;;;;2603729;47;20918;31
2022/01/26 11:05:13;;;;;;;15.55;10.55;;;3.90;99.90;;;;;;2584994;54;20116;31
2022/01/26 11:07:51;;;;;;;18.40;10.45;;;3.90;99.90;;;;;;2584869;54;20813;31
2022/01/26 11:10:38;;;;;;;17.05;10.40;;;3.90;99.90;;;;;;2589128;47;21077;31
2022/01/26 11:15:48;;;;;;;14.13;9.43;;;3.80;99.90;;;;;;2602853;47;20056;31
2022/01/26 11:18:29;;;;;;;14.23;9.98;;;3.80;99.90;;;;;;2584163;54;19961;31
2022/01/26 11:21:16;;;;;;;17.70;10.60;;;3.70;99.90;;;;;;2584946;54;20027;31
2022/01/26 11:23:52;;;;;;;14.00;9.80;;;3.70;99.90;;;;;;2585368;54;20046;31
2022/01/26 11:26:36;;;;;;;;;;;3.70;99.90;;;;;;2585889;54;20062;31
2022/01/26 11:29:21;;;;;;;15.93;10.07;;;3.70;99.90;;;;;;2604142;46;20789;31
2022/01/26 11:32:10;;;;;;;14.15;10.02;;;3.70;99.90;;;;;;2585791;54;20168;31
2022/01/26 11:34:51;;;;;;;13.10;9.20;;;3.70;99.90;;;;;;2598040;46;19941;31
2022/01/26 11:37:39;;;;;;;12.77;9.25;;;3.60;99.90;;;;;;2584739;54;20030;31
2022/01/26 11:46:26;;;;;;;12.67;8.70;;;3.60;99.90;;;;;;2585735;54;20936;31
2022/01/26 11:49:05;;;;;;;14.23;9.80;;;3.60;99.90;;;;;;2585504;54;20030;31
2022/01/26 11:51:43;;;;;;;13.98;8.88;;;3.60;99.90;;;;;;2585611;54;20081;31
2022/01/26 11:54:26;;;;;;;12.70;9.13;;;3.60;99.90;;;;;;2604324;46;20034;31
2022/01/26 11:57:20;;;;;;;10.07;7.40;;;3.60;99.90;;;;;;2585516;54;20097;31
2022/01/26 12:00:12;;;;;;;11.15;6.45;;;3.50;99.90;;;;;;2585782;54;19938;31
2022/01/26 12:03:01;;;;;;;12.87;8.23;;;3.50;99.90;;;;;;2585748;54;20027;31
2022/01/26 12:05:50;;;;;;;9.18;6.43;;;3.50;99.90;;;;;;2585640;54;20050;31
2022/01/26 12:08:44;;;;;;;14.87;6.93;;;3.50;99.90;;;;;;2585466;54;21038;31
2022/01/26 12:11:42;;;;;;;9.10;6.50;;;3.50;99.90;;;;;;2604141;46;20920;31
2022/01/26 12:14:19;;;;;;;9.10;7.07;;;3.60;99.90;;;;;;2585585;54;20120;31
2022/01/26 12:17:03;;;;;;;10.95;6.70;;;3.50;99.90;;;;;;2585611;54;20784;31
2022/01/26 12:19:51;;;;;;;11.75;8.20;;;3.50;99.90;;;;;;2604015;46;20913;31
2022/01/26 12:37:02;;;;;;;8.90;5.83;;;3.40;99.90;;;;;;2585527;54;20945;31
2022/01/26 12:46:00;;;;;;;8.00;5.40;;;3.40;99.90;;;;;;2585690;54;20040;31
2022/01/26 12:48:39;;;;;;;;;;;3.40;99.90;;;;;;2585728;54;20227;31
2022/01/26 12:51:20;;;;;;;7.70;4.95;;;3.40;99.90;;;;;;2584599;54;20781;31
2022/01/26 12:53:58;;;;;;;8.15;4.70;;;3.40;99.90;;;;;;2702339;39;22313;31
2022/01/26 12:59:43;;;;;;;6.03;4.43;;;3.40;99.90;;;;;;2585686;54;20875;31
2022/01/26 13:05:39;;;;;;;7.38;4.22;;;3.30;99.90;;;;;;2585262;54;20838;31
2022/01/26 13:11:28;;;;;;;5.97;3.58;;;3.40;99.90;;;;;;2585537;54;20048;31
2022/01/26 13:14:14;;;;;;;5.30;3.45;;;3.40;99.90;;;;;;2604038;46;20130;31
2022/01/26 13:17:14;;;;;;;7.13;3.57;;;3.40;99.90;;;;;;2589606;46;20881;31
2022/01/26 13:19:56;;;;;;;9.27;3.83;;;3.40;99.90;;;;;;2585588;54;20245;31
2022/01/26 13:26:07;;;;;;;7.40;4.00;;;3.40;99.90;;;;;;2590899;46;20057;31
2022/01/26 13:29:12;;;;;;;6.15;3.65;;;3.40;99.90;;;;;;2584994;54;20893;31
2022/01/26 13:41:51;;;;;;;6.00;3.63;;;3.40;99.90;;;;;;2585549;54;20855;31
2022/01/26 13:45:01;;;;;;;;;;;3.40;99.90;;;;;;2603816;46;20791;31
2022/01/26 13:51:22;;;;;;;7.55;5.13;;;3.40;99.90;;;;;;2590920;46;20222;31
2022/01/26 13:54:22;;;;;;;9.53;5.40;;;3.40;99.90;;;;;;2584506;46;20790;31
2022/01/26 14:00:05;;;;;;;7.90;5.03;;;3.40;99.90;;;;;;2585425;54;20884;31
2022/01/26 14:02:40;;;;;;;8.07;5.72;;;3.30;99.90;;;;;;2604066;46;20030;31
2022/01/26 14:05:39;;;;;;;11.40;6.10;;;3.20;99.90;;;;;;2683532;39;22397;31
2022/01/26 14:08:14;;;;;;;6.17;4.83;;;3.30;99.90;;;;;;2585012;54;19934;31
2022/01/26 14:13:46;;;;;;;8.80;4.43;;;3.30;99.90;;;;;;2585169;54;20890;31
2022/01/26 14:23:00;;;;;;;8.25;4.60;;;3.30;99.90;;;;;;2585302;54;21032;31
2022/01/26 14:25:40;;;;;;;7.00;4.70;;;3.30;99.90;;;;;;2585428;54;20879;31
2022/01/26 14:35:01;;;;;;;8.10;5.80;;;3.30;99.90;;;;;;2603410;46;21181;31
2022/01/26 15:10:15;;;;;;;12.15;6.10;;;2.80;99.90;;;;;;2586855;54;20495;31
2022/01/26 15:41:01;;;;;;;9.57;6.30;;;2.70;99.90;;;;;;2586677;54;20050;31
2022/01/26 15:52:20;;;;;;;14.05;9.43;;;2.70;99.90;;;;;;2586635;54;20992;31
2022/01/26 15:57:55;;;;;;;13.63;9.15;;;2.70;99.90;;;;;;2586385;54;20984;31
2022/01/26 16:06:42;;;;;;;14.88;9.93;;;2.70;99.90;;;;;;2604065;46;20298;31
2022/01/26 16:21:19;;;;;;;17.10;10.00;;;2.60;99.90;;;;;;2585622;54;20923;31
2022/01/26 16:27:06;;;;;;;15.13;10.43;;;2.50;99.90;;;;;;2585567;54;20026;31
2022/01/26 16:38:18;;;;;;;17.98;10.98;;;2.50;99.90;;;;;;2603463;46;20982;31
2022/01/26 18:05:05;;;;;;;23.42;14.32;;;2.50;99.90;;;;;;2585305;54;20022;31
2022/01/26 18:13:48;;;;;;;19.65;11.90;;;2.50;99.90;;;;;;2585362;54;19938;31
2022/01/26 18:16:27;;;;;;;18.80;11.57;;;2.40;99.90;;;;;;2603812;46;20031;31
2022/01/26 18:53:28;;;;;;;18.23;11.40;;;2.20;99.90;;;;;;2585044;54;20246;31
2022/01/26 18:56:03;;;;;;;16.38;11.23;;;2.10;99.90;;;;;;2584567;54;20037;31
2022/01/26 18:58:42;;;;;;;17.23;11.17;;;2.10;99.90;;;;;;2683110;39;21093;31
2022/01/26 19:01:24;;;;;;;22.30;13.00;;;2.10;99.90;;;;;;2585283;54;20954;31
2022/01/26 19:04:26;;;;;;;20.02;11.82;;;2.20;99.90;;;;;;2584965;54;20061;31
2022/01/26 19:07:08;;;;;;;16.27;9.73;;;2.00;99.90;;;;;;2585049;54;20053;31
2022/01/26 19:09:54;;;;;;;15.60;9.52;;;2.10;99.90;;;;;;2585196;54;21114;31
2022/01/26 19:12:37;;;;;;;17.30;10.65;;;2.10;99.90;;;;;;2585237;54;20037;31
2022/01/26 19:15:30;;;;;;;19.80;11.80;;;2.00;99.90;;;;;;2585343;54;21159;31
2022/01/26 19:18:35;;;;;;;19.45;12.05;;;2.00;99.90;;;;;;2584870;54;20037;31
2022/01/26 19:21:28;;;;;;;18.40;11.30;;;2.10;99.90;;;;;;2585091;54;20034;31
2022/01/26 19:27:02;;;;;;;21.42;12.15;;;2.00;99.90;;;;;;2584717;54;20023;31
2022/01/26 19:30:00;;;;;;;19.25;11.30;;;2.00;99.90;;;;;;2585191;54;20920;31
2022/01/26 19:33:01;;;;;;;20.35;11.70;;;2.00;99.90;;;;;;2603398;47;20030;31
2022/01/26 19:51:29;;;;;;;12.40;8.13;;;1.70;99.90;;;;;;2585467;54;20818;31
2022/01/26 19:59:53;;;;;;;15.45;9.30;;;1.60;99.90;;;;;;2585610;54;20974;31
2022/01/26 20:02:32;;;;;;;14.70;9.00;;;1.50;99.90;;;;;;2585856;46;20904;31
2022/01/26 20:08:08;;;;;;;16.30;10.20;;;1.40;99.90;;;;;;2585332;54;20030;31
2022/01/26 20:10:56;;;;;;;16.73;9.73;;;1.50;99.90;;;;;;2585723;54;20924;31
2022/01/26 20:13:38;;;;;;;15.50;8.77;;;1.50;99.90;;;;;;2585690;54;20037;31
2022/01/26 20:16:16;;;;;;;17.10;9.70;;;1.50;99.90;;;;;;2584932;54;20829;31
2022/01/26 20:18:51;;;;;;;16.42;9.63;;;1.50;99.90;;;;;;2584655;54;20123;31
2022/01/26 20:21:31;;;;;;;21.55;11.55;;;1.50;99.90;;;;;;2585709;54;20030;31
2022/01/26 20:27:08;;;;;;;19.02;11.93;;;1.50;99.90;;;;;;2585777;54;21036;31
2022/01/26 20:29:58;;;;;;;17.20;10.70;;;1.50;99.90;;;;;;2585756;54;21488;31
2022/01/26 20:35:36;;;;;;;18.55;10.93;;;1.50;99.90;;;;;;2603834;46;20053;31
2022/01/26 20:38:20;;;;;;;17.60;10.50;;;1.50;99.90;;;;;;2584790;54;20030;31
2022/01/26 20:41:02;;;;;;;20.40;11.75;;;1.50;99.90;;;;;;2591169;46;20018;31
2022/01/26 20:44:10;;;;;;;20.25;12.20;;;1.50;99.90;;;;;;2585864;54;20061;31
2022/01/26 20:46:48;;;;;;;23.60;12.40;;;1.50;99.90;;;;;;2585724;54;20077;31
2022/01/26 20:49:24;;;;;;;20.00;11.75;;;1.50;99.90;;;;;;2585469;54;20590;31
2022/01/26 20:52:07;;;;;;;22.37;12.57;;;1.60;99.90;;;;;;2585234;54;20045;31
2022/01/26 20:54:47;;;;;;;18.95;10.10;;;1.60;99.90;;;;;;2585550;54;19935;31
2022/01/26 20:57:21;;;;;;;22.05;11.55;;;1.50;99.90;;;;;;2585559;54;20986;31
2022/01/26 20:59:58;;;;;;;18.52;11.40;;;1.50;99.90;;;;;;2585447;54;20885;31
2022/01/26 21:02:33;;;;;;;22.33;11.23;;;1.50;99.90;;;;;;2585613;54;20093;31
2022/01/26 21:05:33;;;;;;;18.67;11.13;;;1.50;99.90;;;;;;2585170;54;20595;31
2022/01/26 21:08:12;;;;;;;19.48;10.82;;;1.50;99.90;;;;;;2585006;54;20052;31
2022/01/26 21:10:50;;;;;;;18.85;10.05;;;1.50;99.90;;;;;;2585469;54;20768;31
2022/01/26 21:13:38;;;;;;;20.08;10.30;;;1.50;99.90;;;;;;2585498;54;20030;31
2022/01/26 21:16:16;;;;;;;17.75;9.70;;;1.50;99.90;;;;;;2604152;46;20913;31
2022/01/26 21:18:51;;;;;;;18.73;10.20;;;1.50;99.90;;;;;;2585570;54;21988;31
2022/01/26 21:21:30;;;;;;;17.95;10.30;;;1.50;99.90;;;;;;2585291;54;20337;31
2022/01/26 21:24:09;;;;;;;21.30;10.73;;;1.50;99.90;;;;;;2585648;54;20081;31
2022/01/26 21:26:45;;;;;;;18.50;10.02;;;1.50;99.90;;;;;;2585310;54;20247;31
2022/01/26 21:29:24;;;;;;;18.95;9.85;;;1.50;99.90;;;;;;2585578;54;20905;31
2022/01/26 21:32:00;;;;;;;17.70;10.40;;;1.50;99.90;;;;;;2585417;54;20885;31
2022/01/26 21:34:43;;;;;;;15.75;9.82;;;1.50;99.90;;;;;;2585493;54;20998;31
2022/01/26 21:37:20;;;;;;;18.55;10.05;;;1.50;99.90;;;;;;2603738;46;20827;31
2022/01/26 21:40:10;;;;;;;16.95;10.32;;;1.50;99.90;;;;;;2682880;39;20416;31
2022/01/26 21:42:50;;;;;;;17.25;9.40;;;1.50;99.90;;;;;;2585445;54;20081;31
2022/01/26 21:45:27;;;;;;;18.50;8.95;;;1.50;99.90;;;;;;2585389;54;20035;31
2022/01/26 21:50:42;;;;;;;17.13;9.38;;;1.50;99.90;;;;;;2603727;46;20153;31
2022/01/26 21:53:18;;;;;;;17.20;9.30;;;1.40;99.90;;;;;;2585228;54;20974;31
2022/01/26 22:01:25;;;;;;;18.35;10.52;;;1.40;99.90;;;;;;2589590;46;21177;31
2022/01/26 22:04:12;;;;;;;21.15;9.80;;;1.40;99.90;;;;;;2585272;54;21281;31
2022/01/26 22:07:10;;;;;;;17.90;10.43;;;1.40;99.90;;;;;;2692837;39;21120;31
2022/01/26 22:09:57;;;;;;;17.50;9.15;;;1.40;99.90;;;;;;2687660;39;21090;31
2022/01/26 22:12:33;;;;;;;16.47;8.53;;;1.40;99.90;;;;;;2585065;54;20022;31
2022/01/26 22:15:21;;;;;;;20.60;9.82;;;1.40;99.90;;;;;;2604106;46;20076;31
2022/01/26 22:18:01;;;;;;;19.20;10.77;;;1.40;99.90;;;;;;2585308;54;20109;31
2022/01/26 22:20:44;;;;;;;17.77;9.90;;;1.40;99.90;;;;;;2585129;54;20740;31
2022/01/26 22:24:03;;;;;;;20.50;10.55;;;1.40;99.90;;;;;;2585347;54;20026;31
2022/01/26 22:29:21;;;;;;;19.70;11.13;;;1.40;99.90;;;;;;2584998;54;20994;31
2022/01/26 22:32:00;;;;;;;18.40;9.90;;;1.40;99.90;;;;;;2585232;54;20789;31
2022/01/26 22:34:47;;;;;;;22.20;10.10;;;1.30;99.90;;;;;;2584935;54;20053;31
2022/01/26 22:37:27;;;;;;;19.90;10.40;;;1.40;99.90;;;;;;2585432;54;21158;31
2022/01/26 22:40:25;;;;;;;22.13;11.95;;;1.40;99.90;;;;;;2585071;54;20034;31
2022/01/26 22:43:28;;;;;;;21.23;11.43;;;1.40;99.90;;;;;;2584832;54;20902;31
2022/01/26 22:46:04;;;;;;;;;;;1.40;99.90;;;;;;2585159;54;20995;31
2022/01/26 22:51:51;;;;;;;24.40;11.80;;;1.40;99.90;;;;;;2585027;54;21192;31
2022/01/26 22:54:29;;;;;;;24.90;11.90;;;1.40;99.90;;;;;;2585359;54;20046;31
2022/01/26 22:57:26;;;;;;;;;;;1.40;99.90;;;;;;2585636;54;20971;31
2022/01/26 23:00:17;;;;;;;25.58;11.95;;;1.40;99.90;;;;;;2603890;46;20066;31
2022/01/26 23:02:51;;;;;;;23.45;12.70;;;1.40;99.90;;;;;;2585017;54;20790;31
2022/01/26 23:09:01;;;;;;;22.95;11.05;;;1.40;99.90;;;;;;2603221;47;20037;31
2022/01/26 23:11:38;;;;;;;23.30;11.27;;;1.40;99.90;;;;;;2585240;54;20853;31
2022/01/26 23:14:12;;;;;;;28.75;14.50;;;1.50;99.90;;;;;;2585589;54;22492;31
2022/01/26 23:17:04;;;;;;;26.98;14.00;;;1.40;99.90;;;;;;2585368;54;20984;31
2022/01/26 23:19:38;;;;;;;28.15;13.95;;;1.40;99.90;;;;;;2585658;54;20026;31
2022/01/26 23:25:30;;;;;;;35.40;16.00;;;1.40;99.90;;;;;;2586033;54;20100;31
2022/01/26 23:30:47;;;;;;;28.85;15.25;;;1.40;99.90;;;;;;2585858;54;20029;31
2022/01/26 23:36:19;;;;;;;29.45;15.68;;;1.40;99.90;;;;;;2586014;54;20879;31
